This is the latest recevied weather packets stored in our database for station/object XE2G-31. If no packets are shown the sender has not sent any weather packets the latest 10 day(s).
| Time | Temp. | Humidity | Pressure | Rain* | Wind** | Luminosity | Snow |
|---|---|---|---|---|---|---|---|
| 1777947089 | 22.78° C | 65% | 870 hPa | - | - | - | - |
| 1777946141 | 22.78° C | 65% | 870 hPa | - | - | - | - |
| 1777945194 | 22.78° C | 64% | 870 hPa | - | - | - | - |
| 1777944248 | 22.78° C | 64% | 870 hPa | - | - | - | - |
| 1777943301 | 23.33° C | 63% | 870 hPa | - | - | - | - |
| 1777942354 | 23.33° C | 61% | 870 hPa | - | - | - | - |
| 1777941407 | 23.89° C | 60% | 870 hPa | - | - | - | - |
| 1777940460 | 24.44° C | 58% | 870 hPa | - | - | - | - |
| 1777939513 | 25° C | 58% | 869 hPa | - | - | - | - |
| 1777938566 | 25° C | 58% | 869 hPa | - | - | - | - |
| 1777937620 | 26.11° C | 54% | 869 hPa | - | - | - | - |
| 1777936673 | 26.11° C | 54% | 869 hPa | - | - | - | - |
| 1777935726 | 26.11° C | 53% | 869 hPa | - | - | - | - |
| 1777934779 | 26.67° C | 53% | 869 hPa | - | - | - | - |
| 1777933832 | 26.67° C | 52% | 869 hPa | - | - | - | - |
| 1777932886 | 27.22° C | 51% | 869 hPa | - | - | - | - |
| 1777931939 | 27.22° C | 52% | 869 hPa | - | - | - | - |
| 1777930992 | 27.78° C | 51% | 869 hPa | - | - | - | - |
| 1777930045 | 27.78° C | 52% | 869 hPa | - | - | - | - |
| 1777929098 | 27.22° C | 52% | 870 hPa | - | - | - | - |
| 1777928151 | 27.78° C | 49% | 869 hPa | - | - | - | - |
| 1777927205 | 27.78° C | 49% | 870 hPa | - | - | - | - |
| 1777926258 | 28.33° C | 47% | 870 hPa | - | - | - | - |
| 1777925311 | 28.89° C | 46% | 870 hPa | - | - | - | - |
| 1777924364 | 28.89° C | 47% | 870 hPa | - | - | - | - |
* Rain since midnight (hover to see other rain measurements)
** Current wind speed in m/s (hover to see current wind gust speed)